createdAt,value
2016-09-11T00:00:04.705Z,1001.01
2016-09-11T00:00:31.588Z,1000.89
2016-09-11T00:00:53.326Z,1000.91
2016-09-11T00:01:22.812Z,1000.88
2016-09-11T00:02:25.344Z,1001.42
2016-09-11T00:02:47.080Z,1001.06
2016-09-11T00:03:40.099Z,1000.95
2016-09-11T00:04:01.841Z,1000.89
2016-09-11T00:04:24.703Z,1001.22
2016-09-11T00:05:12.976Z,1001.08
2016-09-11T00:05:39.464Z,1000.77
2016-09-11T00:06:08.920Z,1000.94
2016-09-11T00:06:38.102Z,1001.02
2016-09-11T00:07:31.088Z,1001.02
2016-09-11T00:07:55.712Z,1001.23
2016-09-11T00:08:22.198Z,1001.26
2016-09-11T00:08:51.433Z,1001.34
2016-09-11T00:09:44.416Z,1001.11
2016-09-11T00:10:35.286Z,1000.90
2016-09-11T00:10:58.048Z,1000.95
2016-09-11T00:11:19.797Z,1001.20
2016-09-11T00:11:41.541Z,1001.39
2016-09-11T00:12:04.276Z,1001.14
2016-09-11T00:12:33.695Z,1001.42
2016-09-11T00:12:56.645Z,1000.93
2016-09-11T00:13:23.197Z,1001.05
2016-09-11T00:13:44.969Z,1001.14
2016-09-11T00:14:07.702Z,1001.15
2016-09-11T00:14:31.433Z,1001.58
2016-09-11T00:14:53.157Z,1001.50
2016-09-11T00:15:14.926Z,1001.13
2016-09-11T00:15:37.660Z,1001.00
2016-09-11T00:16:00.771Z,1000.99
2016-09-11T00:16:27.257Z,1000.88
2016-09-11T00:16:53.807Z,1000.97
2016-09-11T00:17:21.313Z,1001.49
2016-09-11T00:17:45.059Z,1001.68
2016-09-11T00:18:12.565Z,1001.41
2016-09-11T00:18:39.080Z,1001.27
2016-09-11T00:19:03.980Z,1001.16
2016-09-11T00:19:28.320Z,1001.15
2016-09-11T00:19:53.031Z,1001.01
2016-09-11T00:20:15.749Z,1000.88
2016-09-11T00:20:44.991Z,1001.01
2016-09-11T00:21:35.248Z,1001.33
2016-09-11T00:21:57.973Z,1001.51
2016-09-11T00:22:19.695Z,1001.43
2016-09-11T00:22:41.424Z,1001.28
2016-09-11T00:23:04.146Z,1001.36
2016-09-11T00:23:26.869Z,1001.35
2016-09-11T00:23:48.600Z,1001.18
2016-09-11T00:24:15.128Z,1000.95
2016-09-11T00:24:41.765Z,1000.96
2016-09-11T00:25:12.918Z,1000.86
2016-09-11T00:25:40.319Z,1000.83
2016-09-11T00:26:07.814Z,1001.16
2016-09-11T00:26:34.344Z,1001.07
2016-09-11T00:26:56.134Z,1001.04
2016-09-11T00:27:22.632Z,1001.24
2016-09-11T00:27:49.199Z,1000.91
2016-09-11T00:28:11.961Z,1000.93
2016-09-11T00:28:34.694Z,1001.23
2016-09-11T00:28:58.473Z,1001.45
2016-09-11T00:29:24.935Z,1001.32
2016-09-11T00:29:49.455Z,1001.26
2016-09-11T00:30:14.224Z,1001.07
2016-09-11T00:30:36.955Z,1000.92
2016-09-11T00:30:58.751Z,1001.14
2016-09-11T00:31:25.277Z,1001.30
2016-09-11T00:32:28.281Z,1001.04
2016-09-11T00:32:54.785Z,1001.20
2016-09-11T00:33:27.065Z,1001.13
2016-09-11T00:33:49.781Z,1000.84
2016-09-11T00:34:12.505Z,1000.92
2016-09-11T00:34:44.770Z,1001.14
2016-09-11T00:35:07.529Z,1001.25
2016-09-11T00:35:30.239Z,1001.23
2016-09-11T00:36:51.741Z,1001.31
2016-09-11T00:37:19.275Z,1001.19
2016-09-11T00:37:45.819Z,1001.08
2016-09-11T00:38:14.281Z,1000.96
2016-09-11T00:38:37.130Z,1001.04
2016-09-11T00:40:09.045Z,1001.19
2016-09-11T00:40:35.507Z,1001.20
2016-09-11T00:41:35.097Z,1000.80
2016-09-11T00:41:57.129Z,1001.32
2016-09-11T00:43:54.655Z,1001.17
2016-09-11T00:44:17.406Z,1001.20
2016-09-11T00:44:43.938Z,1001.01
2016-09-11T00:45:11.535Z,1001.08
2016-09-11T00:45:38.204Z,1001.19
2016-09-11T00:46:12.508Z,1001.62
2016-09-11T00:46:39.029Z,1001.58
2016-09-11T00:47:06.527Z,1001.53
2016-09-11T00:48:09.884Z,1001.43
2016-09-11T00:48:31.662Z,1001.23
2016-09-11T00:49:33.059Z,1001.21
2016-09-11T00:51:13.561Z,1001.06
2016-09-11T00:51:40.071Z,1001.40
2016-09-11T00:52:06.566Z,1001.50
2016-09-11T00:52:28.309Z,1001.50
2016-09-11T00:53:56.371Z,1001.29
2016-09-11T00:54:23.907Z,1001.36
2016-09-11T00:54:51.109Z,1001.26
2016-09-11T00:55:12.919Z,1001.36
2016-09-11T00:56:10.697Z,1001.61
2016-09-11T00:56:32.415Z,1001.54
2016-09-11T00:56:54.156Z,1001.55
2016-09-11T00:57:20.685Z,1001.49
2016-09-11T00:58:16.449Z,1001.27
2016-09-11T00:58:40.185Z,1001.24
2016-09-11T00:59:01.899Z,1001.12
2016-09-11T00:59:27.434Z,1001.10
2016-09-11T00:59:52.735Z,1001.05
2016-09-11T01:00:19.357Z,1000.91
2016-09-11T01:00:45.855Z,1001.24
2016-09-11T01:01:38.774Z,1001.30
2016-09-11T01:02:27.218Z,1001.35
2016-09-11T01:03:15.778Z,1001.38
2016-09-11T01:03:43.271Z,1001.42
2016-09-11T01:04:05.024Z,1001.36
2016-09-11T01:04:27.763Z,1001.29
2016-09-11T01:04:56.924Z,1001.31
2016-09-11T01:05:18.722Z,1001.38
2016-09-11T01:05:50.020Z,1001.27
2016-09-11T01:06:11.727Z,1001.49
2016-09-11T01:06:33.479Z,1001.25
2016-09-11T01:06:55.215Z,1001.06
2016-09-11T01:07:21.708Z,1001.08
2016-09-11T01:08:14.704Z,1001.33
2016-09-11T01:09:07.704Z,1001.45
2016-09-11T01:09:29.449Z,1001.40
2016-09-11T01:09:52.181Z,1001.31
2016-09-11T01:10:14.905Z,1001.12
2016-09-11T01:10:38.642Z,1001.01
2016-09-11T01:11:07.151Z,1001.15
2016-09-11T01:11:32.281Z,1001.26
2016-09-11T01:12:56.563Z,1001.29
2016-09-11T01:13:19.299Z,1001.14
2016-09-11T01:13:42.029Z,1001.20
2016-09-11T01:14:40.877Z,1001.17
2016-09-11T01:15:30.558Z,1001.51
2016-09-11T01:17:19.223Z,1001.20
2016-09-11T01:17:43.487Z,1001.49
2016-09-11T01:18:37.497Z,1001.48
2016-09-11T01:18:59.217Z,1001.05
2016-09-11T01:19:22.953Z,1001.05
2016-09-11T01:21:13.655Z,1001.32
2016-09-11T01:22:06.802Z,1001.13
2016-09-11T01:22:29.527Z,1001.38
2016-09-11T01:22:51.243Z,1001.45
2016-09-11T01:23:25.171Z,1001.41
2016-09-11T01:24:19.200Z,1001.08
2016-09-11T01:24:41.916Z,1001.29
2016-09-11T01:25:04.687Z,1001.32
2016-09-11T01:25:31.194Z,1001.47
2016-09-11T01:26:02.374Z,1001.39
2016-09-11T01:26:26.637Z,1001.21
2016-09-11T01:26:50.966Z,1001.23
2016-09-11T01:27:14.700Z,1001.63
2016-09-11T01:27:42.198Z,1001.38
2016-09-11T01:28:10.537Z,1001.28
2016-09-11T01:28:39.827Z,1001.21
2016-09-11T01:29:06.326Z,1001.34
2016-09-11T01:29:35.814Z,1001.25
2016-09-11T01:30:02.888Z,1001.20
2016-09-11T01:30:29.277Z,1001.20
2016-09-11T01:30:51.044Z,1001.53
2016-09-11T01:31:17.930Z,1001.18
2016-09-11T01:32:10.530Z,1001.77
2016-09-11T01:32:38.634Z,1001.90
2016-09-11T01:33:08.186Z,1001.71
2016-09-11T01:33:35.686Z,1001.39
2016-09-11T01:34:07.074Z,1001.42
2016-09-11T01:34:29.808Z,1001.50
2016-09-11T01:34:56.227Z,1001.51
2016-09-11T01:35:22.588Z,1001.52
2016-09-11T01:36:20.633Z,1001.42
2016-09-11T01:36:42.340Z,1001.37
2016-09-11T01:37:06.077Z,1001.48
2016-09-11T01:37:30.720Z,1001.42
2016-09-11T01:37:53.456Z,1001.34
2016-09-11T01:38:15.173Z,1001.55
2016-09-11T01:38:37.907Z,1001.54
2016-09-11T01:39:03.565Z,1001.53
2016-09-11T01:39:30.064Z,1001.35
2016-09-11T01:39:56.556Z,1001.39
2016-09-11T01:40:32.217Z,1001.34
2016-09-11T01:41:21.468Z,1001.25
2016-09-11T01:41:51.772Z,1001.28
2016-09-11T01:42:14.496Z,1001.39
2016-09-11T01:42:41.236Z,1001.25
2016-09-11T01:43:02.931Z,1001.17
2016-09-11T01:43:29.448Z,1001.21
2016-09-11T01:43:51.177Z,1001.27
2016-09-11T01:44:18.689Z,1001.34
2016-09-11T01:44:45.170Z,1001.21
2016-09-11T01:45:08.918Z,1001.32
2016-09-11T01:45:30.818Z,1001.50
2016-09-11T01:46:23.795Z,1002.11
2016-09-11T01:46:52.009Z,1001.89
2016-09-11T01:47:17.772Z,1001.83
2016-09-11T01:48:18.054Z,1001.53
2016-09-11T01:49:37.334Z,1001.44
2016-09-11T01:50:28.291Z,1001.89
2016-09-11T01:51:26.169Z,1001.53
2016-09-11T01:51:48.909Z,1001.77
2016-09-11T01:52:16.425Z,1001.41
2016-09-11T01:54:09.836Z,1001.39
2016-09-11T01:54:36.375Z,1001.62
2016-09-11T01:55:08.650Z,1001.85
2016-09-11T01:55:35.162Z,1001.74
2016-09-11T01:55:56.886Z,1001.58
2016-09-11T01:56:18.627Z,1001.47
2016-09-11T01:56:43.366Z,1001.39
2016-09-11T01:57:36.486Z,1001.46
2016-09-11T01:58:29.473Z,1001.32
2016-09-11T01:58:55.813Z,1001.18
2016-09-11T01:59:22.317Z,1001.14
2016-09-11T01:59:46.077Z,1001.45
2016-09-11T02:00:08.802Z,1001.65
2016-09-11T02:00:33.500Z,1001.86
2016-09-11T02:01:05.839Z,1001.55
2016-09-11T02:02:30.027Z,1001.53
2016-09-11T02:03:27.261Z,1001.18
2016-09-11T02:03:48.978Z,1001.32
2016-09-11T02:04:21.077Z,1001.23
2016-09-11T02:04:53.309Z,1001.39
2016-09-11T02:05:15.051Z,1001.41
2016-09-11T02:05:42.365Z,1001.80
2016-09-11T02:06:31.500Z,1001.97
2016-09-11T02:07:00.607Z,1002.07
2016-09-11T02:07:26.345Z,1001.94
2016-09-11T02:08:47.681Z,1001.33
2016-09-11T02:09:14.362Z,1001.34
2016-09-11T02:09:36.116Z,1001.58
2016-09-11T02:10:03.018Z,1001.38
2016-09-11T02:10:27.414Z,1001.49
2016-09-11T02:10:49.201Z,1001.38
2016-09-11T02:11:16.686Z,1001.28
2016-09-11T02:11:38.525Z,1001.54
2016-09-11T02:12:02.185Z,1001.93
2016-09-11T02:12:58.825Z,1001.71
2016-09-11T02:13:23.299Z,1001.53
2016-09-11T02:13:49.795Z,1001.69
2016-09-11T02:14:16.121Z,1001.74
2016-09-11T02:14:37.851Z,1001.62
2016-09-11T02:15:30.858Z,1001.33
2016-09-11T02:15:52.585Z,1001.66
2016-09-11T02:16:19.101Z,1001.69
2016-09-11T02:16:41.824Z,1001.64
2016-09-11T02:17:07.395Z,1001.88
2016-09-11T02:17:34.915Z,1001.77
2016-09-11T02:17:56.714Z,1001.55
2016-09-11T02:18:23.152Z,1001.68
2016-09-11T02:18:56.415Z,1001.62
2016-09-11T02:19:49.187Z,1001.67
2016-09-11T02:20:13.903Z,1001.62
2016-09-11T02:20:35.632Z,1001.82
2016-09-11T02:21:57.831Z,1001.92
2016-09-11T02:22:24.291Z,1001.81
2016-09-11T02:22:45.990Z,1001.68
2016-09-11T02:23:17.382Z,1001.54
2016-09-11T02:23:41.687Z,1001.78
2016-09-11T02:24:45.650Z,1001.54
2016-09-11T02:25:12.151Z,1001.59
2016-09-11T02:25:33.975Z,1001.48
2016-09-11T02:25:56.604Z,1001.44
2016-09-11T02:26:23.100Z,1001.48
2016-09-11T02:26:54.707Z,1001.55
2016-09-11T02:27:46.320Z,1001.50
2016-09-11T02:28:08.063Z,1001.49
2016-09-11T02:28:30.013Z,1001.67
2016-09-11T02:28:56.556Z,1001.64
2016-09-11T02:29:24.032Z,1001.71
2016-09-11T02:29:48.597Z,1001.97
2016-09-11T02:30:44.115Z,1001.98
2016-09-11T02:31:41.876Z,1001.66
2016-09-11T02:32:03.606Z,1001.72
2016-09-11T02:32:28.169Z,1001.72
2016-09-11T02:32:54.662Z,1001.76
2016-09-11T02:33:17.404Z,1001.66
2016-09-11T02:33:40.148Z,1001.60
2016-09-11T02:34:04.780Z,1001.32
2016-09-11T02:34:26.688Z,1001.48
2016-09-11T02:34:48.400Z,1001.40
2016-09-11T02:35:14.928Z,1001.45
2016-09-11T02:35:42.481Z,1001.68
2016-09-11T02:36:10.065Z,1002.02
2016-09-11T02:36:39.181Z,1001.91
2016-09-11T02:37:32.784Z,1001.78
2016-09-11T02:38:00.096Z,1001.65
2016-09-11T02:38:22.013Z,1001.76
2016-09-11T02:38:44.726Z,1002.11
2016-09-11T02:39:06.486Z,1002.23
2016-09-11T02:40:00.291Z,1001.72
2016-09-11T02:40:32.391Z,1001.98
2016-09-11T02:40:55.091Z,1002.03
2016-09-11T02:41:19.470Z,1001.97
2016-09-11T02:41:41.203Z,1001.88
2016-09-11T02:42:34.028Z,1001.85
2016-09-11T02:43:00.346Z,1001.62
2016-09-11T02:43:22.133Z,1001.51
2016-09-11T02:43:43.827Z,1001.54
2016-09-11T02:44:34.893Z,1001.48
2016-09-11T02:44:58.623Z,1001.68
2016-09-11T02:45:21.356Z,1001.50
2016-09-11T02:45:48.893Z,1001.97
2016-09-11T02:46:16.395Z,1001.80
2016-09-11T02:46:43.091Z,1001.74
2016-09-11T02:47:09.596Z,1001.77
2016-09-11T02:47:36.102Z,1001.80
2016-09-11T02:47:59.276Z,1001.87
2016-09-11T02:48:25.859Z,1001.82
2016-09-11T02:49:14.025Z,1002.06
2016-09-11T02:49:37.741Z,1002.10
2016-09-11T02:50:33.389Z,1001.94
2016-09-11T02:50:59.916Z,1001.94
2016-09-11T02:51:31.041Z,1001.78
2016-09-11T02:52:22.771Z,1001.69
2016-09-11T02:53:21.246Z,1001.75
2016-09-11T02:53:47.724Z,1001.95
2016-09-11T02:54:09.459Z,1002.05
2016-09-11T02:54:32.186Z,1002.00
2016-09-11T02:54:54.918Z,1001.87
2016-09-11T02:55:43.142Z,1001.89
2016-09-11T02:56:09.672Z,1002.02
2016-09-11T02:56:31.386Z,1002.03
2016-09-11T02:56:53.115Z,1002.07
2016-09-11T02:57:25.365Z,1001.98
2016-09-11T02:57:47.107Z,1001.90
2016-09-11T02:58:08.845Z,1001.90
2016-09-11T02:58:35.397Z,1001.76
2016-09-11T02:58:57.133Z,1001.77
2016-09-11T02:59:23.628Z,1001.80
2016-09-11T02:59:48.313Z,1001.87
2016-09-11T03:00:16.813Z,1001.82
2016-09-11T03:00:43.314Z,1001.61
2016-09-11T03:01:31.732Z,1001.97
2016-09-11T03:02:02.992Z,1002.15
2016-09-11T03:02:24.715Z,1001.97
2016-09-11T03:02:54.893Z,1002.21
2016-09-11T03:03:21.380Z,1002.15
2016-09-11T03:03:43.251Z,1001.89
2016-09-11T03:04:05.974Z,1001.70
2016-09-11T03:04:28.694Z,1001.76
2016-09-11T03:04:53.043Z,1001.83
2016-09-11T03:05:14.800Z,1001.67
2016-09-11T03:05:36.508Z,1001.74
2016-09-11T03:05:59.220Z,1001.85
2016-09-11T03:06:23.862Z,1001.95
2016-09-11T03:06:45.657Z,1001.87
2016-09-11T03:07:12.170Z,1002.02
2016-09-11T03:07:38.667Z,1001.74
2016-09-11T03:08:31.678Z,1002.09
2016-09-11T03:08:58.195Z,1001.96
2016-09-11T03:09:24.688Z,1001.97
2016-09-11T03:09:49.223Z,1001.95
2016-09-11T03:10:13.578Z,1001.73
2016-09-11T03:10:39.900Z,1001.63
2016-09-11T03:11:08.759Z,1002.05
2016-09-11T03:11:35.254Z,1001.89
2016-09-11T03:12:01.746Z,1002.12
2016-09-11T03:12:23.468Z,1002.19
2016-09-11T03:12:45.192Z,1002.01
2016-09-11T03:13:11.695Z,1002.01
2016-09-11T03:13:33.621Z,1001.88
2016-09-11T03:14:02.922Z,1002.25
2016-09-11T03:14:34.010Z,1001.99
2016-09-11T03:15:01.518Z,1001.77
2016-09-11T03:15:28.019Z,1001.91
2016-09-11T03:16:30.219Z,1001.99
2016-09-11T03:16:54.771Z,1001.98
2016-09-11T03:17:16.548Z,1001.89
2016-09-11T03:17:43.145Z,1001.79
2016-09-11T03:18:04.860Z,1001.83
2016-09-11T03:18:26.603Z,1001.97
2016-09-11T03:18:48.338Z,1001.95
2016-09-11T03:19:19.608Z,1001.81
2016-09-11T03:19:41.341Z,1002.02
2016-09-11T03:20:03.078Z,1001.93
2016-09-11T03:20:29.555Z,1001.81
2016-09-11T03:20:58.909Z,1001.83
2016-09-11T03:21:20.637Z,1001.73
2016-09-11T03:21:42.437Z,1001.70
2016-09-11T03:22:07.532Z,1001.73
2016-09-11T03:22:34.087Z,1001.79
2016-09-11T03:23:00.584Z,1001.94
2016-09-11T03:23:53.590Z,1002.11
2016-09-11T03:24:17.987Z,1001.93
2016-09-11T03:25:10.974Z,1002.01
2016-09-11T03:25:35.571Z,1001.73
2016-09-11T03:27:06.102Z,1001.50
2016-09-11T03:27:28.829Z,1001.76
2016-09-11T03:27:52.592Z,1001.73
2016-09-11T03:28:23.917Z,1001.80
2016-09-11T03:28:50.451Z,1002.03
2016-09-11T03:29:14.899Z,1002.06
2016-09-11T03:29:41.405Z,1002.02
2016-09-11T03:30:46.467Z,1001.81
2016-09-11T03:31:35.713Z,1001.92
2016-09-11T03:32:05.126Z,1001.90
2016-09-11T03:32:31.594Z,1001.93
2016-09-11T03:33:05.407Z,1001.81
2016-09-11T03:34:07.153Z,1001.84
2016-09-11T03:35:03.111Z,1001.86
2016-09-11T03:35:30.598Z,1001.86
2016-09-11T03:35:55.066Z,1001.90
2016-09-11T03:36:45.865Z,1002.24
2016-09-11T03:37:11.006Z,1002.23
2016-09-11T03:37:33.654Z,1002.13
2016-09-11T03:38:22.867Z,1002.04
2016-09-11T03:38:44.609Z,1001.99
2016-09-11T03:39:06.329Z,1001.90
2016-09-11T03:39:35.655Z,1002.07
2016-09-11T03:39:58.398Z,1001.87
2016-09-11T03:40:47.772Z,1002.06
2016-09-11T03:41:10.478Z,1001.81
2016-09-11T03:41:36.960Z,1001.90
2016-09-11T03:42:04.454Z,1001.90
2016-09-11T03:42:30.976Z,1001.81
2016-09-11T03:42:58.470Z,1002.00
2016-09-11T03:43:27.525Z,1001.86
2016-09-11T03:44:20.525Z,1001.94
2016-09-11T03:44:42.267Z,1001.79
2016-09-11T03:45:04.995Z,1001.77
2016-09-11T03:45:26.710Z,1001.91
2016-09-11T03:45:53.216Z,1002.21
2016-09-11T03:46:56.301Z,1002.11
2016-09-11T03:47:20.032Z,1001.86
2016-09-11T03:47:41.878Z,1001.88
2016-09-11T03:48:10.891Z,1001.93
2016-09-11T03:48:37.359Z,1002.07
2016-09-11T03:49:03.878Z,1002.07
2016-09-11T03:49:30.378Z,1002.01
2016-09-11T03:49:52.108Z,1002.00
2016-09-11T03:50:19.609Z,1002.11
2016-09-11T03:50:44.280Z,1002.00
2016-09-11T03:51:10.788Z,1001.81
2016-09-11T03:51:37.286Z,1001.92
2016-09-11T03:52:02.910Z,1001.88
2016-09-11T03:53:32.560Z,1001.77
2016-09-11T03:53:56.854Z,1001.80
2016-09-11T03:54:23.360Z,1001.85
2016-09-11T03:54:48.986Z,1001.88
2016-09-11T03:55:10.782Z,1001.83
2016-09-11T03:55:33.507Z,1002.36
2016-09-11T03:55:56.250Z,1002.27
2016-09-11T03:56:22.743Z,1002.04
2016-09-11T03:56:44.470Z,1001.78
2016-09-11T03:57:09.058Z,1001.90
2016-09-11T03:57:35.361Z,1002.00
2016-09-11T03:57:58.093Z,1002.26
2016-09-11T03:58:20.832Z,1002.21
2016-09-11T03:58:44.583Z,1002.04
2016-09-11T03:59:09.375Z,1002.15
2016-09-11T03:59:34.053Z,1002.15
2016-09-11T04:00:00.740Z,1002.22
2016-09-11T04:00:25.208Z,1002.23
2016-09-11T04:00:46.979Z,1002.26
2016-09-11T04:01:44.530Z,1002.21
2016-09-11T04:02:47.068Z,1002.23
2016-09-11T04:03:11.482Z,1002.15
2016-09-11T04:03:37.798Z,1002.05
2016-09-11T04:04:04.292Z,1002.12
2016-09-11T04:04:30.797Z,1002.06
2016-09-11T04:04:52.557Z,1002.17
2016-09-11T04:05:52.829Z,1002.09
2016-09-11T04:06:51.395Z,1002.04
2016-09-11T04:07:47.207Z,1001.91
2016-09-11T04:08:16.615Z,1001.94
2016-09-11T04:08:38.362Z,1001.99
2016-09-11T04:09:01.092Z,1002.16
2016-09-11T04:09:22.820Z,1002.04
2016-09-11T04:09:49.321Z,1002.12
2016-09-11T04:10:11.070Z,1001.96
2016-09-11T04:10:43.588Z,1002.00
2016-09-11T04:11:05.335Z,1002.19
2016-09-11T04:11:33.185Z,1002.25
2016-09-11T04:11:54.935Z,1002.34
2016-09-11T04:12:53.351Z,1002.17
2016-09-11T04:13:15.145Z,1002.35
2016-09-11T04:13:42.634Z,1002.08
2016-09-11T04:14:08.346Z,1002.44
2016-09-11T04:14:31.261Z,1002.31
2016-09-11T04:14:53.119Z,1002.05
2016-09-11T04:15:16.855Z,1001.99
2016-09-11T04:15:38.665Z,1002.09
2016-09-11T04:16:01.489Z,1002.04
2016-09-11T04:16:23.228Z,1002.17
2016-09-11T04:16:47.542Z,1002.21
2016-09-11T04:17:11.898Z,1002.09
2016-09-11T04:17:34.608Z,1002.26
2016-09-11T04:17:56.359Z,1002.34
2016-09-11T04:18:18.176Z,1002.25
2016-09-11T04:18:42.667Z,1002.33
2016-09-11T04:19:07.020Z,1002.20
2016-09-11T04:19:33.527Z,1002.18
2016-09-11T04:19:56.245Z,1002.34
2016-09-11T04:20:21.594Z,1002.22
2016-09-11T04:20:45.904Z,1002.40
2016-09-11T04:21:37.107Z,1002.24
2016-09-11T04:21:58.825Z,1002.25
2016-09-11T04:22:28.329Z,1002.30
2016-09-11T04:22:50.039Z,1002.22
2016-09-11T04:23:16.951Z,1002.25
2016-09-11T04:23:38.676Z,1002.24
2016-09-11T04:24:00.487Z,1002.24
2016-09-11T04:24:25.133Z,1002.25
2016-09-11T04:25:59.680Z,1002.26
2016-09-11T04:26:30.896Z,1002.34
2016-09-11T04:27:29.661Z,1002.42
2016-09-11T04:28:25.375Z,1002.30
2016-09-11T04:29:21.180Z,1002.35
2016-09-11T04:29:45.436Z,1002.35
2016-09-11T04:30:11.935Z,1002.42
2016-09-11T04:30:44.008Z,1002.42
2016-09-11T04:31:06.764Z,1002.35
2016-09-11T04:31:38.044Z,1002.34
2016-09-11T04:32:04.543Z,1002.01
2016-09-11T04:32:31.043Z,1002.36
2016-09-11T04:32:58.541Z,1002.43
2016-09-11T04:33:21.273Z,1002.37
2016-09-11T04:33:43.004Z,1002.27
2016-09-11T04:34:09.498Z,1002.23
2016-09-11T04:34:35.846Z,1002.15
2016-09-11T04:35:35.801Z,1002.26
2016-09-11T04:36:02.295Z,1002.18
2016-09-11T04:36:33.343Z,1002.21
2016-09-11T04:36:55.072Z,1002.15
2016-09-11T04:37:18.807Z,1002.19
2016-09-11T04:37:43.382Z,1002.16
2016-09-11T04:38:19.734Z,1002.28
2016-09-11T04:38:43.475Z,1002.41
2016-09-11T04:39:09.972Z,1002.38
2016-09-11T04:39:36.797Z,1002.36
2016-09-11T04:39:58.534Z,1002.53
2016-09-11T04:40:32.527Z,1002.34
2016-09-11T04:40:55.258Z,1002.39
2016-09-11T04:41:17.976Z,1002.32
2016-09-11T04:41:44.467Z,1002.12
2016-09-11T04:42:44.239Z,1002.43
2016-09-11T04:43:13.302Z,1002.58
2016-09-11T04:43:44.419Z,1002.54
2016-09-11T04:44:11.745Z,1002.71
2016-09-11T04:45:37.796Z,1002.19
2016-09-11T04:46:04.291Z,1002.70
2016-09-11T04:46:33.524Z,1002.43
2016-09-11T04:47:02.887Z,1002.35
2016-09-11T04:47:29.379Z,1002.25
2016-09-11T04:47:55.878Z,1002.78
2016-09-11T04:48:21.424Z,1002.51
2016-09-11T04:48:50.813Z,1002.47
2016-09-11T04:49:17.331Z,1002.46
2016-09-11T04:50:06.579Z,1002.42
2016-09-11T04:50:28.325Z,1002.26
2016-09-11T04:50:51.049Z,1002.22
2016-09-11T04:51:15.335Z,1002.28
2016-09-11T04:51:40.115Z,1002.24
2016-09-11T04:52:02.835Z,1002.35
2016-09-11T04:52:27.327Z,1002.42
2016-09-11T04:52:54.829Z,1002.62
2016-09-11T04:53:45.853Z,1002.43
2016-09-11T04:54:14.922Z,1002.69
2016-09-11T04:54:36.649Z,1002.81
2016-09-11T04:55:02.966Z,1002.85
2016-09-11T04:55:27.254Z,1002.73
2016-09-11T04:55:48.995Z,1002.77
2016-09-11T04:56:13.715Z,1002.65
2016-09-11T04:56:35.443Z,1002.59
2016-09-11T04:57:01.942Z,1002.55
2016-09-11T04:57:28.435Z,1002.55
2016-09-11T04:57:50.173Z,1002.52
2016-09-11T04:58:24.397Z,1002.18
2016-09-11T04:58:46.118Z,1002.34
2016-09-11T04:59:10.820Z,1002.27
2016-09-11T04:59:32.550Z,1002.51
2016-09-11T04:59:55.271Z,1002.33
2016-09-11T05:00:17.014Z,1002.44
2016-09-11T05:00:39.766Z,1002.47
2016-09-11T05:01:01.514Z,1002.28
2016-09-11T05:01:49.748Z,1002.57
2016-09-11T05:02:11.501Z,1002.75
2016-09-11T05:02:33.231Z,1002.74
2016-09-11T05:02:54.944Z,1002.57
2016-09-11T05:03:43.373Z,1002.54
2016-09-11T05:04:05.101Z,1002.58
2016-09-11T05:04:27.833Z,1002.44
2016-09-11T05:04:49.571Z,1002.39
2016-09-11T05:05:16.058Z,1002.52
2016-09-11T05:05:42.554Z,1002.49
2016-09-11T05:06:05.277Z,1002.58
2016-09-11T05:06:27.004Z,1002.66
2016-09-11T05:06:48.732Z,1002.61
2016-09-11T05:07:10.455Z,1002.57
2016-09-11T05:07:35.165Z,1002.41
2016-09-11T05:07:56.883Z,1002.43
2016-09-11T05:08:22.397Z,1002.50
2016-09-11T05:08:44.201Z,1002.85
2016-09-11T05:09:10.701Z,1002.81
2016-09-11T05:10:02.893Z,1002.62
2016-09-11T05:10:24.653Z,1002.60
2016-09-11T05:11:12.874Z,1002.55
2016-09-11T05:11:35.600Z,1002.53
2016-09-11T05:11:57.334Z,1002.30
2016-09-11T05:12:46.582Z,1002.42
2016-09-11T05:13:13.085Z,1002.47
2016-09-11T05:13:34.813Z,1002.48
2016-09-11T05:14:23.046Z,1002.71
2016-09-11T05:14:44.787Z,1002.57
2016-09-11T05:15:06.524Z,1002.68
2016-09-11T05:15:28.250Z,1002.69
2016-09-11T05:16:53.559Z,1002.83
2016-09-11T05:17:15.283Z,1002.91
2016-09-11T05:17:37.011Z,1002.90
2016-09-11T05:17:58.762Z,1003.00
2016-09-11T05:18:20.534Z,1003.00
2016-09-11T05:18:47.043Z,1003.01
2016-09-11T05:19:13.539Z,1002.74
2016-09-11T05:19:40.029Z,1002.56
2016-09-11T05:20:01.764Z,1002.50
2016-09-11T05:20:23.504Z,1002.58
2016-09-11T05:20:46.237Z,1002.66
2016-09-11T05:21:07.968Z,1002.64
2016-09-11T05:21:29.725Z,1002.72
2016-09-11T05:21:51.434Z,1002.71
2016-09-11T05:22:13.167Z,1002.69
2016-09-11T05:22:37.513Z,1002.70
2016-09-11T05:22:59.277Z,1002.60
2016-09-11T05:23:32.519Z,1002.85
2016-09-11T05:23:55.258Z,1002.70
2016-09-11T05:24:17.981Z,1002.75
2016-09-11T05:24:39.715Z,1003.18
2016-09-11T05:25:01.450Z,1003.12
2016-09-11T05:25:28.961Z,1003.31
2016-09-11T05:25:55.466Z,1002.79
2016-09-11T05:26:17.203Z,1002.75
2016-09-11T05:26:39.932Z,1002.87
2016-09-11T05:27:06.422Z,1002.70
2016-09-11T05:27:32.925Z,1002.56
2016-09-11T05:28:04.202Z,1002.53
2016-09-11T05:28:25.955Z,1002.70
2016-09-11T05:28:47.678Z,1002.86
2016-09-11T05:29:09.581Z,1002.89
2016-09-11T05:30:00.369Z,1002.86
2016-09-11T05:30:22.003Z,1002.61
2016-09-11T05:30:48.500Z,1002.93
2016-09-11T05:31:41.738Z,1002.98
2016-09-11T05:32:03.462Z,1002.93
2016-09-11T05:32:29.958Z,1002.86
2016-09-11T05:32:51.686Z,1002.75
2016-09-11T05:33:13.418Z,1002.95
2016-09-11T05:33:36.144Z,1002.93
2016-09-11T05:33:57.872Z,1002.97
2016-09-11T05:34:19.599Z,1003.14
2016-09-11T05:34:41.334Z,1002.87
2016-09-11T05:35:03.069Z,1002.82
2016-09-11T05:35:24.800Z,1002.83
2016-09-11T05:35:46.550Z,1002.74
2016-09-11T05:36:08.301Z,1002.87
2016-09-11T05:36:30.065Z,1002.80
2016-09-11T05:36:55.895Z,1002.78
2016-09-11T05:37:18.691Z,1002.96
2016-09-11T05:37:40.432Z,1002.91
2016-09-11T05:38:03.232Z,1002.81
2016-09-11T05:38:24.999Z,1002.74
2016-09-11T05:38:46.726Z,1002.86
2016-09-11T05:39:35.939Z,1002.86
2016-09-11T05:39:57.670Z,1003.16
2016-09-11T05:40:45.884Z,1003.04
2016-09-11T05:41:07.668Z,1002.91
2016-09-11T05:41:31.399Z,1003.10
2016-09-11T05:41:53.232Z,1002.88
2016-09-11T05:42:14.953Z,1002.94
2016-09-11T05:42:36.697Z,1002.94
2016-09-11T05:43:03.299Z,1002.79
2016-09-11T05:43:25.030Z,1002.60
2016-09-11T05:43:46.778Z,1002.88
2016-09-11T05:44:08.518Z,1002.84
2016-09-11T05:44:30.259Z,1002.89
2016-09-11T05:44:51.991Z,1003.02
2016-09-11T05:45:18.493Z,1002.99
2016-09-11T05:45:41.222Z,1002.81
2016-09-11T05:46:30.470Z,1002.91
2016-09-11T05:46:52.253Z,1002.66
2016-09-11T05:47:14.045Z,1002.72
2016-09-11T05:47:38.353Z,1003.00
2016-09-11T05:48:04.851Z,1003.01
2016-09-11T05:48:26.575Z,1002.81
2016-09-11T05:48:48.297Z,1003.19
2016-09-11T05:49:10.016Z,1003.35
2016-09-11T05:49:34.448Z,1003.29
2016-09-11T05:49:56.179Z,1003.21
2016-09-11T05:50:17.913Z,1003.18
2016-09-11T05:50:44.412Z,1003.03
2016-09-11T05:51:10.905Z,1003.02
2016-09-11T05:51:32.647Z,1003.00
2016-09-11T05:51:54.371Z,1003.05
2016-09-11T05:52:20.877Z,1003.07
2016-09-11T05:52:42.617Z,1002.87
2016-09-11T05:53:04.435Z,1002.91
2016-09-11T05:53:30.935Z,1002.81
2016-09-11T05:53:53.655Z,1002.74
2016-09-11T05:54:20.154Z,1002.77
2016-09-11T05:54:41.888Z,1002.72
2016-09-11T05:55:08.384Z,1002.73
2016-09-11T05:55:30.136Z,1002.93
2016-09-11T05:55:51.882Z,1002.98
2016-09-11T05:56:18.406Z,1003.06
2016-09-11T05:56:44.905Z,1003.08
2016-09-11T05:57:45.341Z,1003.42
2016-09-11T05:58:10.791Z,1003.11
2016-09-11T05:58:37.286Z,1003.21
2016-09-11T05:58:59.094Z,1003.05
2016-09-11T05:59:22.838Z,1003.17
2016-09-11T05:59:45.593Z,1003.11
2016-09-11T06:00:13.121Z,1003.14
2016-09-11T06:00:39.612Z,1003.31
2016-09-11T06:01:01.466Z,1003.13
2016-09-11T06:01:24.080Z,1002.97
2016-09-11T06:01:45.837Z,1003.14
2016-09-11T06:02:10.186Z,1003.11
2016-09-11T06:02:36.690Z,1003.03
2016-09-11T06:02:59.416Z,1002.95
2016-09-11T06:03:22.157Z,1002.83
2016-09-11T06:03:45.904Z,1002.80